Time;durP1;ratioP1;P1;durP2;ratioP2;P2;SDS_P1;SDS_P2;PMS_P1;PMS_P2;Temp;Humidity;BMP_temperature;BMP_pressure;BME280_temperature;BME280_humidity;BME280_pressure;Samples;Min_cycle;Max_cycle;Signal;HPM_P1;HPM_P2
2021/03/30 00:01:49;;;;;;;3.37;2.10;;;;;;;;;;5037059;28;20271;-61
2021/03/30 00:04:15;;;;;;;3.23;2.50;;;;;;;;;;5066723;28;20173;-60
2021/03/30 00:06:41;;;;;;;2.73;2.23;;;;;;;;;;5046671;28;20184;-61
2021/03/30 00:09:09;;;;;;;3.00;2.37;;;;;;;;;;5056050;28;20184;-62
2021/03/30 00:11:36;;;;;;;3.83;2.50;;;;;;;;;;5050789;28;20744;-61
2021/03/30 00:14:02;;;;;;;2.87;2.23;;;;;;;;;;5066091;28;20663;-61
2021/03/30 00:16:28;;;;;;;3.47;2.30;;;;;;;;;;5053857;28;20539;-62
2021/03/30 00:18:54;;;;;;;2.60;2.30;;;;;;;;;;5063736;28;20176;-61
2021/03/30 00:21:20;;;;;;;4.57;2.50;;;;;;;;;;5069678;28;20241;-61
2021/03/30 00:23:46;;;;;;;2.87;2.40;;;;;;;;;;5062145;28;20267;-61
2021/03/30 00:26:12;;;;;;;3.07;2.07;;;;;;;;;;5068431;28;20642;-60
2021/03/30 00:28:38;;;;;;;5.60;1.90;;;;;;;;;;5068055;28;20245;-62
2021/03/30 00:31:04;;;;;;;4.90;2.53;;;;;;;;;;5052384;28;20287;-61
2021/03/30 00:33:30;;;;;;;2.37;2.17;;;;;;;;;;5056193;28;20442;-61
2021/03/30 00:35:56;;;;;;;3.07;1.80;;;;;;;;;;5073679;28;20685;-60
2021/03/30 00:38:22;;;;;;;3.83;2.23;;;;;;;;;;5047641;28;20265;-60
2021/03/30 00:40:48;;;;;;;2.53;2.00;;;;;;;;;;5072240;28;20258;-63
2021/03/30 00:43:14;;;;;;;2.93;2.20;;;;;;;;;;5065903;28;20177;-60
2021/03/30 00:45:40;;;;;;;2.60;1.97;;;;;;;;;;5063925;28;20177;-60
2021/03/30 00:48:07;;;;;;;5.10;2.27;;;;;;;;;;5067903;28;20183;-61
2021/03/30 00:50:33;;;;;;;2.67;2.20;;;;;;;;;;5055339;28;20200;-61
2021/03/30 00:53:00;;;;;;;2.67;2.20;;;;;;;;;;5071057;28;20627;-61
2021/03/30 00:55:27;;;;;;;3.87;2.13;;;;;;;;;;5061929;28;20268;-61
2021/03/30 00:57:53;;;;;;;2.40;2.13;;;;;;;;;;5053534;28;20570;-61
2021/03/30 01:00:19;;;;;;;2.60;2.20;;;;;;;;;;5068773;28;20181;-61
2021/03/30 01:02:46;;;;;;;3.23;2.40;;;;;;;;;;5035402;28;20208;-60
2021/03/30 01:05:12;;;;;;;3.53;2.40;;;;;;;;;;5069492;28;20581;-60
2021/03/30 01:07:43;;;;;;;3.03;2.30;;;;;;;;;;5054604;28;20279;-62
2021/03/30 01:10:28;;;;;;;4.83;3.20;;;;;;;;;;5062459;28;20211;-60
2021/03/30 01:13:15;;;;;;;2.77;2.33;;;;;;;;;;5059324;28;20531;-60
2021/03/30 01:16:00;;;;;;;2.80;2.43;;;;;;;;;;5053049;28;20173;-60
2021/03/30 01:18:29;;;;;;;2.70;2.13;;;;;;;;;;5064175;28;20284;-60
2021/03/30 01:21:14;;;;;;;5.30;2.73;;;;;;;;;;5072941;28;20536;-60
2021/03/30 01:23:49;;;;;;;2.53;1.97;;;;;;;;;;5065392;28;20602;-60
2021/03/30 01:26:26;;;;;;;2.50;2.30;;;;;;;;;;5035098;28;20577;-61
2021/03/30 01:29:09;;;;;;;2.80;2.10;;;;;;;;;;5051527;28;20236;-60
2021/03/30 01:31:36;;;;;;;3.57;2.20;;;;;;;;;;5053737;28;20203;-60
2021/03/30 01:34:03;;;;;;;2.47;2.10;;;;;;;;;;5061548;28;20180;-60
2021/03/30 01:36:33;;;;;;;2.53;2.33;;;;;;;;;;5064475;28;20631;-60
2021/03/30 01:39:00;;;;;;;4.53;2.20;;;;;;;;;;5048086;28;20271;-60
2021/03/30 01:41:26;;;;;;;3.73;2.30;;;;;;;;;;5043940;28;20192;-62
2021/03/30 01:43:53;;;;;;;2.70;2.30;;;;;;;;;;5052836;28;20178;-59
2021/03/30 01:46:19;;;;;;;2.45;2.22;;;;;;;;;;5051149;28;20418;-61
2021/03/30 01:48:46;;;;;;;4.97;2.83;;;;;;;;;;5066645;28;20583;-60
2021/03/30 01:51:14;;;;;;;3.10;2.20;;;;;;;;;;5042680;28;20208;-60
2021/03/30 01:53:42;;;;;;;2.50;2.30;;;;;;;;;;5060633;28;20181;-60
2021/03/30 01:56:08;;;;;;;2.80;2.20;;;;;;;;;;5052203;28;20172;-60
2021/03/30 01:58:35;;;;;;;3.97;2.30;;;;;;;;;;5064753;28;20639;-61
2021/03/30 02:01:04;;;;;;;2.33;2.10;;;;;;;;;;5054165;28;20643;-61
2021/03/30 02:03:31;;;;;;;2.43;2.03;;;;;;;;;;5057441;28;20507;-60
2021/03/30 02:05:57;;;;;;;2.93;2.30;;;;;;;;;;5071227;28;20251;-61
2021/03/30 02:08:31;;;;;;;5.23;2.47;;;;;;;;;;5053633;28;20177;-61
2021/03/30 02:10:58;;;;;;;6.50;2.43;;;;;;;;;;5053382;28;20207;-60
2021/03/30 02:15:56;;;;;;;5.27;2.23;;;;;;;;;;5072239;28;20244;-62
2021/03/30 02:18:23;;;;;;;3.33;2.60;;;;;;;;;;5059503;28;20169;-61
2021/03/30 02:20:52;;;;;;;1.93;1.73;;;;;;;;;;5053740;28;20181;-60
2021/03/30 02:23:20;;;;;;;3.70;2.30;;;;;;;;;;5052976;28;20177;-60
2021/03/30 02:25:47;;;;;;;2.87;2.17;;;;;;;;;;5037942;28;20177;-60
2021/03/30 02:28:16;;;;;;;3.27;2.10;;;;;;;;;;5070954;28;20257;-60
2021/03/30 02:30:42;;;;;;;2.33;2.00;;;;;;;;;;5053430;28;20204;-61
2021/03/30 02:33:10;;;;;;;2.77;2.50;;;;;;;;;;5065594;28;20173;-61
2021/03/30 02:35:37;;;;;;;5.83;2.43;;;;;;;;;;5053038;28;20173;-61
2021/03/30 02:38:05;;;;;;;6.17;2.70;;;;;;;;;;5071606;28;20175;-60
2021/03/30 02:40:31;;;;;;;2.83;2.30;;;;;;;;;;5063051;28;20216;-61
2021/03/30 02:42:59;;;;;;;2.23;2.03;;;;;;;;;;5051524;28;20669;-60
2021/03/30 02:45:28;;;;;;;3.33;2.47;;;;;;;;;;5052516;28;20195;-60
2021/03/30 02:47:59;;;;;;;3.67;2.40;;;;;;;;;;5044146;28;20179;-59
2021/03/30 02:50:27;;;;;;;3.87;2.33;;;;;;;;;;5063154;28;20212;-61
2021/03/30 02:52:54;;;;;;;2.90;2.57;;;;;;;;;;5033607;28;20549;-61
2021/03/30 02:55:21;;;;;;;3.13;2.50;;;;;;;;;;5048014;28;20172;-61
2021/03/30 02:57:47;;;;;;;2.77;2.50;;;;;;;;;;5033266;28;20184;-60
2021/03/30 03:00:14;;;;;;;4.10;2.47;;;;;;;;;;5050209;28;20545;-60
2021/03/30 03:02:42;;;;;;;4.23;2.20;;;;;;;;;;5052106;28;20275;-60
2021/03/30 03:05:09;;;;;;;3.37;2.20;;;;;;;;;;5069745;28;20173;-61
2021/03/30 03:07:37;;;;;;;3.60;2.70;;;;;;;;;;5051279;28;20544;-62
2021/03/30 03:10:04;;;;;;;6.07;2.80;;;;;;;;;;5047976;28;20546;-60
2021/03/30 03:12:31;;;;;;;2.70;2.40;;;;;;;;;;5068187;28;20215;-60
2021/03/30 03:14:59;;;;;;;2.77;2.50;;;;;;;;;;5060331;28;20204;-61
2021/03/30 03:17:26;;;;;;;2.90;2.33;;;;;;;;;;5067364;28;20250;-63
2021/03/30 03:19:53;;;;;;;3.03;2.60;;;;;;;;;;5069758;28;20548;-60
2021/03/30 03:22:19;;;;;;;2.97;2.30;;;;;;;;;;5052426;28;20658;-61
2021/03/30 03:24:49;;;;;;;3.60;2.30;;;;;;;;;;5044795;28;20188;-61
2021/03/30 03:27:16;;;;;;;2.57;2.07;;;;;;;;;;5068023;28;20194;-61
2021/03/30 03:29:42;;;;;;;4.17;2.70;;;;;;;;;;5069911;28;20185;-61
2021/03/30 03:32:11;;;;;;;3.13;2.10;;;;;;;;;;5052796;28;20532;-61
2021/03/30 03:34:42;;;;;;;2.43;2.13;;;;;;;;;;5050204;28;20175;-61
2021/03/30 03:37:08;;;;;;;2.97;2.30;;;;;;;;;;5066807;28;20175;-60
2021/03/30 03:39:34;;;;;;;3.17;2.60;;;;;;;;;;5063379;28;20204;-60
2021/03/30 03:42:01;;;;;;;3.33;2.43;;;;;;;;;;5051569;28;20263;-63
2021/03/30 03:44:33;;;;;;;2.87;2.40;;;;;;;;;;5043759;28;20211;-60
2021/03/30 03:46:59;;;;;;;4.40;2.40;;;;;;;;;;5048966;28;20678;-61
2021/03/30 03:49:37;;;;;;;3.13;2.50;;;;;;;;;;5042359;28;20203;-61
2021/03/30 03:52:08;;;;;;;4.57;2.60;;;;;;;;;;5069566;28;20229;-60
2021/03/30 03:54:35;;;;;;;5.97;2.50;;;;;;;;;;5046783;28;20218;-61
2021/03/30 03:57:14;;;;;;;5.00;2.50;;;;;;;;;;5068750;28;20528;-60
2021/03/30 03:59:43;;;;;;;3.27;2.77;;;;;;;;;;5069057;28;20604;-61
2021/03/30 04:02:22;;;;;;;2.70;2.20;;;;;;;;;;5051677;28;20207;-60
2021/03/30 04:04:48;;;;;;;4.50;2.37;;;;;;;;;;5067905;28;20172;-60
2021/03/30 04:07:16;;;;;;;5.23;2.40;;;;;;;;;;5046439;28;20176;-60
2021/03/30 04:09:47;;;;;;;3.20;2.63;;;;;;;;;;5047648;28;20173;-61
2021/03/30 04:12:14;;;;;;;5.63;2.97;;;;;;;;;;5069967;28;20152;-61
2021/03/30 04:14:40;;;;;;;5.13;2.67;;;;;;;;;;5051513;28;20187;-61
2021/03/30 04:17:06;;;;;;;4.30;2.37;;;;;;;;;;5052917;28;20548;-60
2021/03/30 04:19:33;;;;;;;5.10;2.67;;;;;;;;;;5049683;28;20184;-61
2021/03/30 04:21:59;;;;;;;5.17;2.93;;;;;;;;;;5034052;28;20180;-61
2021/03/30 04:24:32;;;;;;;3.13;2.73;;;;;;;;;;5060042;28;20181;-60
2021/03/30 04:26:58;;;;;;;3.23;2.50;;;;;;;;;;5064597;28;20176;-60
2021/03/30 04:29:24;;;;;;;3.63;2.63;;;;;;;;;;5060358;28;20223;-60
2021/03/30 04:31:50;;;;;;;3.93;2.90;;;;;;;;;;5035505;28;20294;-61
2021/03/30 04:34:17;;;;;;;5.07;2.40;;;;;;;;;;5047536;28;20583;-61
2021/03/30 04:36:43;;;;;;;2.83;2.40;;;;;;;;;;5061849;28;20798;-60
2021/03/30 04:39:09;;;;;;;3.20;2.50;;;;;;;;;;5065495;28;20203;-60
2021/03/30 04:41:35;;;;;;;2.63;2.27;;;;;;;;;;5034518;28;20204;-61
2021/03/30 04:44:02;;;;;;;3.57;2.67;;;;;;;;;;5063685;28;20180;-61
2021/03/30 04:46:28;;;;;;;5.53;2.97;;;;;;;;;;5048155;28;20185;-60
2021/03/30 04:48:55;;;;;;;2.53;2.23;;;;;;;;;;5057003;28;20185;-60
2021/03/30 04:51:21;;;;;;;4.80;2.90;;;;;;;;;;5033858;28;20598;-61
2021/03/30 04:53:47;;;;;;;7.40;3.07;;;;;;;;;;5067799;28;20230;-60
2021/03/30 04:56:13;;;;;;;6.70;2.73;;;;;;;;;;5049497;28;20172;-60
2021/03/30 04:58:39;;;;;;;4.30;2.73;;;;;;;;;;5043031;28;20176;-60
2021/03/30 05:01:06;;;;;;;4.37;2.40;;;;;;;;;;5051535;28;20180;-60
2021/03/30 05:03:32;;;;;;;3.50;2.80;;;;;;;;;;5068262;28;20528;-60
2021/03/30 05:05:58;;;;;;;4.73;2.90;;;;;;;;;;5036609;28;20184;-60
2021/03/30 05:08:24;;;;;;;5.10;2.40;;;;;;;;;;5033139;28;20181;-60
2021/03/30 05:10:51;;;;;;;3.27;2.60;;;;;;;;;;5050560;28;20228;-60
2021/03/30 05:13:17;;;;;;;4.77;3.23;;;;;;;;;;5053659;28;20188;-61
2021/03/30 05:15:43;;;;;;;5.03;2.73;;;;;;;;;;5070259;28;20180;-60
2021/03/30 05:18:09;;;;;;;3.97;2.40;;;;;;;;;;5061342;28;20620;-61
2021/03/30 05:20:35;;;;;;;3.10;2.53;;;;;;;;;;5064442;28;20222;-60
2021/03/30 05:23:02;;;;;;;5.50;3.13;;;;;;;;;;5036150;28;20260;-62
2021/03/30 05:25:28;;;;;;;3.77;2.60;;;;;;;;;;5041501;28;20180;-59
2021/03/30 05:27:54;;;;;;;3.23;2.43;;;;;;;;;;5034849;28;20181;-60
2021/03/30 05:30:20;;;;;;;5.47;3.30;;;;;;;;;;5070927;28;20196;-60
2021/03/30 05:32:47;;;;;;;4.70;2.87;;;;;;;;;;5073205;28;20176;-61
2021/03/30 05:35:14;;;;;;;7.17;3.77;;;;;;;;;;5068374;28;20177;-61
2021/03/30 05:37:40;;;;;;;4.60;2.90;;;;;;;;;;5055022;28;20191;-60
2021/03/30 05:40:16;;;;;;;3.77;2.90;;;;;;;;;;5062725;28;20228;-60
2021/03/30 05:42:43;;;;;;;6.03;3.00;;;;;;;;;;5034321;28;20180;-60
2021/03/30 05:45:10;;;;;;;5.13;3.17;;;;;;;;;;5068426;28;20184;-60
2021/03/30 05:47:37;;;;;;;4.00;2.97;;;;;;;;;;5054928;28;20296;-61
2021/03/30 05:50:12;;;;;;;4.37;2.70;;;;;;;;;;5068184;28;20204;-60
2021/03/30 05:55:10;;;;;;;4.10;2.90;;;;;;;;;;5060144;28;20273;-61
2021/03/30 05:57:38;;;;;;;4.30;2.70;;;;;;;;;;5071363;28;20176;-60
2021/03/30 06:00:06;;;;;;;4.60;2.57;;;;;;;;;;5056347;28;20553;-60
2021/03/30 06:02:36;;;;;;;2.83;2.60;;;;;;;;;;5052171;28;20581;-62
2021/03/30 06:05:02;;;;;;;7.73;2.67;;;;;;;;;;5066989;28;20645;-62
2021/03/30 06:07:29;;;;;;;5.67;2.60;;;;;;;;;;5071937;28;20168;-60
2021/03/30 06:09:56;;;;;;;2.83;2.33;;;;;;;;;;5045666;28;20185;-60
2021/03/30 06:12:22;;;;;;;6.10;2.63;;;;;;;;;;5051659;28;20551;-60
2021/03/30 06:14:49;;;;;;;4.73;3.00;;;;;;;;;;5061058;28;20523;-60
2021/03/30 06:17:16;;;;;;;3.60;2.93;;;;;;;;;;5052093;28;20161;-60
2021/03/30 06:19:48;;;;;;;4.27;3.20;;;;;;;;;;5046165;28;20184;-62
2021/03/30 06:22:14;;;;;;;3.43;2.63;;;;;;;;;;5070255;28;20172;-60
2021/03/30 06:24:42;;;;;;;3.77;2.83;;;;;;;;;;5050419;28;20267;-60
2021/03/30 06:27:08;;;;;;;6.97;3.67;;;;;;;;;;5069513;28;20247;-60
2021/03/30 06:29:38;;;;;;;3.93;2.50;;;;;;;;;;5069856;28;20185;-60
2021/03/30 06:32:05;;;;;;;5.10;2.57;;;;;;;;;;5070764;28;20172;-60
2021/03/30 06:34:32;;;;;;;6.60;3.40;;;;;;;;;;5066274;28;20168;-60
2021/03/30 06:36:58;;;;;;;5.40;2.90;;;;;;;;;;5051976;28;20184;-60
2021/03/30 06:39:35;;;;;;;4.53;2.77;;;;;;;;;;5070469;28;20219;-60
2021/03/30 06:42:21;;;;;;;5.40;2.83;;;;;;;;;;5050644;28;20252;-60
2021/03/30 06:44:51;;;;;;;4.43;2.93;;;;;;;;;;5041570;28;20177;-59
2021/03/30 06:47:19;;;;;;;3.43;3.00;;;;;;;;;;5052078;28;20181;-60
2021/03/30 06:50:01;;;;;;;5.10;2.90;;;;;;;;;;5067269;28;20193;-60
2021/03/30 06:52:28;;;;;;;4.07;3.00;;;;;;;;;;5069138;28;20219;-60
2021/03/30 06:54:54;;;;;;;3.67;2.90;;;;;;;;;;5051340;28;20177;-61
2021/03/30 06:57:36;;;;;;;4.73;3.37;;;;;;;;;;5053517;28;20184;-60
2021/03/30 07:00:04;;;;;;;4.53;2.93;;;;;;;;;;5048841;28;20176;-60
2021/03/30 07:02:31;;;;;;;5.63;3.00;;;;;;;;;;5059828;28;20506;-60
2021/03/30 07:04:57;;;;;;;4.30;3.07;;;;;;;;;;5070387;28;20587;-60
2021/03/30 07:07:24;;;;;;;6.00;2.90;;;;;;;;;;5051801;28;20176;-60
2021/03/30 07:09:53;;;;;;;4.47;2.83;;;;;;;;;;5064153;28;20179;-60
2021/03/30 07:12:23;;;;;;;4.63;2.90;;;;;;;;;;5071224;28;20202;-60
2021/03/30 07:14:49;;;;;;;11.73;3.13;;;;;;;;;;5066762;28;20223;-60
2021/03/30 07:17:20;;;;;;;3.60;3.00;;;;;;;;;;5051727;28;20199;-59
2021/03/30 07:19:47;;;;;;;5.43;2.63;;;;;;;;;;5063984;28;20603;-60
2021/03/30 07:22:17;;;;;;;6.90;3.70;;;;;;;;;;5071355;28;20184;-61
2021/03/30 07:24:50;;;;;;;4.53;3.43;;;;;;;;;;5070557;28;20177;-61
2021/03/30 07:27:36;;;;;;;4.03;2.97;;;;;;;;;;5071375;28;20194;-59
2021/03/30 07:30:03;;;;;;;4.00;3.00;;;;;;;;;;5070768;28;20200;-60
2021/03/30 07:32:32;;;;;;;5.83;3.70;;;;;;;;;;5071305;28;20469;-60
2021/03/30 07:35:05;;;;;;;4.50;3.63;;;;;;;;;;5051356;28;20654;-62
2021/03/30 07:37:48;;;;;;;6.30;2.90;;;;;;;;;;5051060;28;20654;-60
2021/03/30 07:40:15;;;;;;;4.07;3.40;;;;;;;;;;5065226;28;20212;-60
2021/03/30 07:42:42;;;;;;;5.33;3.33;;;;;;;;;;5065238;28;20625;-60
2021/03/30 07:45:10;;;;;;;8.23;3.30;;;;;;;;;;5050442;28;20192;-62
2021/03/30 07:47:39;;;;;;;5.57;3.03;;;;;;;;;;5051218;28;20184;-60
2021/03/30 07:50:11;;;;;;;4.97;3.37;;;;;;;;;;5058577;28;20219;-59
2021/03/30 07:52:44;;;;;;;6.13;3.07;;;;;;;;;;5052752;28;20183;-60
2021/03/30 07:55:23;;;;;;;6.47;3.17;;;;;;;;;;5063904;28;20169;-60
2021/03/30 07:58:15;;;;;;;6.40;3.37;;;;;;;;;;5060613;28;20184;-59
2021/03/30 08:00:41;;;;;;;5.33;3.53;;;;;;;;;;5042920;28;20192;-60
2021/03/30 08:03:11;;;;;;;7.30;3.80;;;;;;;;;;5052739;28;20180;-62
2021/03/30 08:05:38;;;;;;;8.50;3.47;;;;;;;;;;5070721;28;20176;-60
2021/03/30 08:08:23;;;;;;;8.63;4.43;;;;;;;;;;5047940;28;20189;-62
2021/03/30 08:10:54;;;;;;;8.83;3.87;;;;;;;;;;5035379;28;20582;-60
2021/03/30 08:13:23;;;;;;;8.57;4.20;;;;;;;;;;5055316;28;20252;-61
2021/03/30 08:15:58;;;;;;;5.53;4.23;;;;;;;;;;5063281;28;20180;-61
2021/03/30 08:18:26;;;;;;;6.57;4.00;;;;;;;;;;5069354;28;20310;-61
2021/03/30 08:20:57;;;;;;;4.80;3.50;;;;;;;;;;5052620;28;20180;-60
2021/03/30 08:23:23;;;;;;;7.20;4.23;;;;;;;;;;5051435;28;20253;-62
2021/03/30 08:25:52;;;;;;;6.70;4.10;;;;;;;;;;5053073;28;20185;-61
2021/03/30 08:28:51;;;;;;;7.57;3.83;;;;;;;;;;5031531;28;20181;-62
2021/03/30 08:31:18;;;;;;;5.13;3.77;;;;;;;;;;5023680;28;20216;-61
2021/03/30 08:33:47;;;;;;;6.83;3.90;;;;;;;;;;5068121;28;20226;-61
2021/03/30 08:36:16;;;;;;;5.47;3.70;;;;;;;;;;5068604;28;20233;-62
2021/03/30 08:38:48;;;;;;;5.23;3.80;;;;;;;;;;5045754;28;20180;-61
2021/03/30 08:41:36;;;;;;;4.70;3.50;;;;;;;;;;5048547;28;20183;-62
2021/03/30 08:44:11;;;;;;;6.07;4.13;;;;;;;;;;5064928;28;20214;-62
2021/03/30 08:46:41;;;;;;;7.47;4.20;;;;;;;;;;5041303;28;20630;-61
2021/03/30 08:49:26;;;;;;;8.27;4.37;;;;;;;;;;5043458;28;20675;-61
2021/03/30 08:51:54;;;;;;;8.60;4.40;;;;;;;;;;5053981;28;20322;-62
2021/03/30 08:54:24;;;;;;;7.80;4.30;;;;;;;;;;5043863;28;20648;-61
2021/03/30 08:56:51;;;;;;;7.07;4.47;;;;;;;;;;5048110;28;20233;-62
2021/03/30 08:59:19;;;;;;;7.70;4.70;;;;;;;;;;5054853;28;20188;-63
2021/03/30 09:01:45;;;;;;;7.90;4.13;;;;;;;;;;5055133;28;20547;-62
2021/03/30 09:04:12;;;;;;;6.83;4.60;;;;;;;;;;5072744;28;20176;-63
2021/03/30 09:06:41;;;;;;;6.10;4.00;;;;;;;;;;5053773;28;20172;-62
2021/03/30 09:09:21;;;;;;;9.33;5.63;;;;;;;;;;5069907;28;20521;-62
2021/03/30 09:11:47;;;;;;;5.50;4.37;;;;;;;;;;5034149;28;20209;-62
2021/03/30 09:14:17;;;;;;;8.43;5.30;;;;;;;;;;5061843;28;20703;-61
2021/03/30 09:16:49;;;;;;;9.20;4.93;;;;;;;;;;5065578;28;20256;-62
2021/03/30 09:19:16;;;;;;;8.13;4.60;;;;;;;;;;5061484;28;20200;-62
2021/03/30 09:21:44;;;;;;;8.63;4.80;;;;;;;;;;5072569;28;20650;-61
2021/03/30 09:24:21;;;;;;;8.47;5.77;;;;;;;;;;5072026;28;20194;-62
2021/03/30 09:26:51;;;;;;;8.27;4.70;;;;;;;;;;5054108;28;20625;-61
2021/03/30 09:29:18;;;;;;;7.87;5.10;;;;;;;;;;5073303;28;20176;-62
2021/03/30 09:31:45;;;;;;;8.37;5.60;;;;;;;;;;5072821;28;20290;-62
2021/03/30 09:34:11;;;;;;;9.33;5.47;;;;;;;;;;5068457;28;20268;-61
2021/03/30 09:36:41;;;;;;;8.17;5.57;;;;;;;;;;5066765;28;20173;-61
2021/03/30 09:39:07;;;;;;;8.93;6.72;;;;;;;;;;5050591;28;20422;-62
2021/03/30 09:41:38;;;;;;;9.30;6.70;;;;;;;;;;5070561;28;20175;-63
2021/03/30 09:44:04;;;;;;;8.47;6.60;;;;;;;;;;5071899;28;20230;-62
2021/03/30 09:46:30;;;;;;;10.87;6.70;;;;;;;;;;5058629;28;20181;-62
2021/03/30 09:48:57;;;;;;;11.37;7.53;;;;;;;;;;5058273;28;20164;-62
2021/03/30 09:51:23;;;;;;;9.73;6.37;;;;;;;;;;5084403;28;20205;-64
2021/03/30 09:53:49;;;;;;;17.67;7.63;;;;;;;;;;5086449;28;20184;-63
2021/03/30 09:56:19;;;;;;;12.47;7.33;;;;;;;;;;5053400;28;20216;-63
2021/03/30 09:58:45;;;;;;;11.00;7.33;;;;;;;;;;5055495;28;20173;-62
2021/03/30 10:01:11;;;;;;;13.20;8.40;;;;;;;;;;5072089;28;20172;-62
2021/03/30 10:03:37;;;;;;;13.83;8.73;;;;;;;;;;5071053;28;20188;-62
2021/03/30 10:06:17;;;;;;;12.63;8.97;;;;;;;;;;5071521;28;20342;-62
2021/03/30 10:08:43;;;;;;;17.23;10.23;;;;;;;;;;5071455;28;20218;-61
2021/03/30 10:11:09;;;;;;;16.20;9.77;;;;;;;;;;5054208;28;20247;-61
2021/03/30 10:13:40;;;;;;;15.83;10.70;;;;;;;;;;5054679;28;20559;-62
2021/03/30 10:16:13;;;;;;;18.27;11.20;;;;;;;;;;5056228;28;20197;-62
2021/03/30 10:18:40;;;;;;;18.37;12.07;;;;;;;;;;5038462;28;20200;-61
2021/03/30 10:21:06;;;;;;;19.90;12.30;;;;;;;;;;5053747;28;20592;-62
2021/03/30 10:23:36;;;;;;;19.87;12.47;;;;;;;;;;5071401;28;20188;-61
2021/03/30 10:26:12;;;;;;;17.77;12.37;;;;;;;;;;5052977;28;20182;-62
2021/03/30 10:28:38;;;;;;;20.17;13.20;;;;;;;;;;5059508;28;20176;-62
2021/03/30 10:31:10;;;;;;;17.70;12.37;;;;;;;;;;5053353;28;20263;-62
2021/03/30 10:33:39;;;;;;;17.87;12.70;;;;;;;;;;5070851;28;20177;-62
2021/03/30 10:36:05;;;;;;;16.33;11.37;;;;;;;;;;5055977;28;20181;-62
2021/03/30 10:38:31;;;;;;;18.77;12.10;;;;;;;;;;5054419;28;20226;-62
2021/03/30 10:41:24;;;;;;;16.93;10.53;;;;;;;;;;5057835;28;20218;-62
2021/03/30 10:43:57;;;;;;;17.00;11.30;;;;;;;;;;5061564;28;20203;-62
2021/03/30 10:46:23;;;;;;;14.37;10.13;;;;;;;;;;5069152;28;20612;-64
2021/03/30 10:49:03;;;;;;;18.60;11.37;;;;;;;;;;5042317;28;20195;-62
2021/03/30 10:51:31;;;;;;;16.47;11.70;;;;;;;;;;5065536;28;20264;-62
2021/03/30 10:53:58;;;;;;;14.30;9.77;;;;;;;;;;5058039;28;20303;-62
2021/03/30 10:56:24;;;;;;;17.53;11.17;;;;;;;;;;5038336;28;20189;-63
2021/03/30 10:58:50;;;;;;;17.90;11.13;;;;;;;;;;5056060;28;20184;-64
2021/03/30 11:01:16;;;;;;;15.90;11.53;;;;;;;;;;5052334;28;20187;-62
2021/03/30 11:03:42;;;;;;;12.93;10.20;;;;;;;;;;5085721;28;20176;-63
2021/03/30 11:06:09;;;;;;;13.67;9.87;;;;;;;;;;5067982;28;20176;-62
2021/03/30 11:08:35;;;;;;;15.50;10.20;;;;;;;;;;5041071;28;20191;-62
2021/03/30 11:11:01;;;;;;;15.50;10.07;;;;;;;;;;5051990;28;20283;-62
2021/03/30 11:13:27;;;;;;;14.70;10.10;;;;;;;;;;5045996;28;20188;-63
2021/03/30 11:15:53;;;;;;;16.93;10.03;;;;;;;;;;5047951;28;20169;-63
2021/03/30 11:18:19;;;;;;;17.13;9.90;;;;;;;;;;5068187;28;20223;-62
2021/03/30 11:20:45;;;;;;;12.10;8.80;;;;;;;;;;5042699;28;20190;-63
2021/03/30 11:23:11;;;;;;;16.63;8.67;;;;;;;;;;5052666;28;20185;-63
2021/03/30 11:25:38;;;;;;;13.63;9.30;;;;;;;;;;5039197;28;20205;-63
2021/03/30 11:28:08;;;;;;;16.20;10.63;;;;;;;;;;5041106;28;20180;-63
2021/03/30 11:30:43;;;;;;;15.27;10.27;;;;;;;;;;5058336;28;20715;-63
2021/03/30 11:36:02;;;;;;;15.77;9.57;;;;;;;;;;5055382;28;20192;-63
2021/03/30 11:38:21;;;;;;;16.43;10.10;;;;;;;;;;5069505;28;20184;-63
2021/03/30 11:40:47;;;;;;;14.27;10.67;;;;;;;;;;5051300;28;20621;-62
2021/03/30 11:43:14;;;;;;;14.97;10.83;;;;;;;;;;5069779;28;20178;-63
2021/03/30 11:45:40;;;;;;;17.37;11.07;;;;;;;;;;5070287;28;20176;-63
2021/03/30 11:48:06;;;;;;;13.83;9.57;;;;;;;;;;5070851;28;20169;-65
2021/03/30 11:50:33;;;;;;;16.87;10.57;;;;;;;;;;5058094;28;20236;-62
2021/03/30 11:52:59;;;;;;;15.77;9.57;;;;;;;;;;5032604;28;20204;-63
2021/03/30 11:55:25;;;;;;;14.83;9.47;;;;;;;;;;5045382;28;20235;-63
2021/03/30 11:57:52;;;;;;;16.00;10.00;;;;;;;;;;5050057;28;20205;-63
2021/03/30 12:00:19;;;;;;;15.57;10.13;;;;;;;;;;5058632;28;20203;-63
2021/03/30 12:02:46;;;;;;;14.77;10.57;;;;;;;;;;5057203;28;20211;-63
2021/03/30 12:05:12;;;;;;;15.27;10.13;;;;;;;;;;5059916;28;20196;-63
2021/03/30 12:07:38;;;;;;;13.47;9.60;;;;;;;;;;5065749;28;20216;-63
2021/03/30 12:10:05;;;;;;;16.87;11.03;;;;;;;;;;5066580;28;20287;-63
2021/03/30 12:12:31;;;;;;;13.10;9.80;;;;;;;;;;5063955;28;20188;-63
2021/03/30 12:14:58;;;;;;;17.23;10.47;;;;;;;;;;5055803;28;20619;-63
2021/03/30 12:17:24;;;;;;;13.83;10.10;;;;;;;;;;5060064;28;20173;-62
2021/03/30 12:19:50;;;;;;;13.93;9.57;;;;;;;;;;5063611;28;20184;-62
2021/03/30 12:22:17;;;;;;;13.10;9.37;;;;;;;;;;5071874;28;20175;-63
2021/03/30 12:24:43;;;;;;;14.10;9.67;;;;;;;;;;5073437;28;20238;-62
2021/03/30 12:27:10;;;;;;;15.23;10.53;;;;;;;;;;5072431;28;20230;-63
2021/03/30 12:29:40;;;;;;;14.27;10.20;;;;;;;;;;5066012;28;20193;-63
2021/03/30 12:32:07;;;;;;;15.20;10.03;;;;;;;;;;5053586;28;20200;-64
2021/03/30 12:34:34;;;;;;;17.10;11.07;;;;;;;;;;5065012;28;20176;-62
2021/03/30 12:37:01;;;;;;;14.43;10.37;;;;;;;;;;5073138;28;20215;-63
2021/03/30 12:39:27;;;;;;;16.30;10.57;;;;;;;;;;5051592;28;20310;-63
2021/03/30 12:41:53;;;;;;;15.13;10.77;;;;;;;;;;5070869;28;20176;-63
2021/03/30 12:44:19;;;;;;;16.47;10.67;;;;;;;;;;5070100;28;20265;-62
2021/03/30 12:46:46;;;;;;;16.13;9.57;;;;;;;;;;5061970;28;20342;-62
2021/03/30 12:49:12;;;;;;;11.57;9.30;;;;;;;;;;5064711;28;20200;-64
2021/03/30 12:51:38;;;;;;;12.97;9.57;;;;;;;;;;5073265;28;20288;-63
2021/03/30 12:54:04;;;;;;;17.40;10.47;;;;;;;;;;5055051;28;20183;-63
2021/03/30 12:56:31;;;;;;;16.57;11.47;;;;;;;;;;5064603;28;20276;-63
2021/03/30 12:58:57;;;;;;;13.93;9.37;;;;;;;;;;5071933;28;20177;-64
2021/03/30 13:01:23;;;;;;;15.33;9.47;;;;;;;;;;5053289;28;20537;-64
2021/03/30 13:03:49;;;;;;;19.40;10.67;;;;;;;;;;5039477;28;20180;-64
2021/03/30 13:06:15;;;;;;;13.10;9.40;;;;;;;;;;5061327;28;20174;-65
2021/03/30 13:08:41;;;;;;;13.63;8.87;;;;;;;;;;5046299;28;20190;-63
2021/03/30 13:11:07;;;;;;;13.60;8.50;;;;;;;;;;5051304;28;20199;-63
2021/03/30 13:13:33;;;;;;;11.90;9.13;;;;;;;;;;5065041;28;20189;-63
2021/03/30 13:15:59;;;;;;;15.73;8.87;;;;;;;;;;5070430;28;20180;-63
2021/03/30 13:18:25;;;;;;;11.23;9.20;;;;;;;;;;5056798;28;20810;-63
2021/03/30 13:20:51;;;;;;;14.10;8.90;;;;;;;;;;5072171;28;20176;-63
2021/03/30 13:23:18;;;;;;;13.17;9.60;;;;;;;;;;5062646;28;20189;-63
2021/03/30 13:25:44;;;;;;;15.97;10.47;;;;;;;;;;5068776;28;20621;-63
2021/03/30 13:28:10;;;;;;;11.53;8.47;;;;;;;;;;5048220;28;20190;-63
2021/03/30 13:30:37;;;;;;;13.77;9.17;;;;;;;;;;5060813;28;20210;-63
2021/03/30 13:33:04;;;;;;;13.70;9.33;;;;;;;;;;5056841;28;20611;-63
2021/03/30 13:35:30;;;;;;;11.80;9.23;;;;;;;;;;5054378;28;20217;-63
2021/03/30 13:37:56;;;;;;;13.50;8.50;;;;;;;;;;5063836;28;20177;-63
2021/03/30 13:40:23;;;;;;;13.53;9.57;;;;;;;;;;5037503;28;20215;-65
2021/03/30 13:42:49;;;;;;;14.20;9.70;;;;;;;;;;5069786;28;20183;-63
2021/03/30 13:45:16;;;;;;;13.63;8.30;;;;;;;;;;5053028;28;20729;-63
2021/03/30 13:47:42;;;;;;;13.23;8.97;;;;;;;;;;5061945;28;20176;-62
2021/03/30 13:50:09;;;;;;;13.90;8.77;;;;;;;;;;5043618;28;20212;-63
2021/03/30 13:52:36;;;;;;;13.57;9.30;;;;;;;;;;5065126;28;20180;-62
2021/03/30 13:55:02;;;;;;;16.90;8.57;;;;;;;;;;5067549;28;20180;-63
2021/03/30 13:57:28;;;;;;;11.43;8.50;;;;;;;;;;5052573;28;20183;-61
2021/03/30 13:59:54;;;;;;;11.90;7.83;;;;;;;;;;5059398;28;20180;-63
2021/03/30 14:02:21;;;;;;;16.20;8.43;;;;;;;;;;5057420;28;20794;-63
2021/03/30 14:04:47;;;;;;;12.23;8.30;;;;;;;;;;5063474;28;20907;-63
2021/03/30 14:07:13;;;;;;;19.13;8.10;;;;;;;;;;5058382;28;20642;-64
2021/03/30 14:09:40;;;;;;;11.10;7.40;;;;;;;;;;5053866;28;20278;-64
2021/03/30 14:12:10;;;;;;;12.07;7.53;;;;;;;;;;5059324;28;20207;-63
2021/03/30 14:14:42;;;;;;;13.03;7.83;;;;;;;;;;5046904;28;20184;-63
2021/03/30 14:17:23;;;;;;;10.87;7.70;;;;;;;;;;5050174;28;20526;-63
2021/03/30 14:19:52;;;;;;;13.32;8.85;;;;;;;;;;5061190;28;20435;-62
2021/03/30 14:22:24;;;;;;;10.20;7.73;;;;;;;;;;5038142;28;20177;-63
2021/03/30 14:24:53;;;;;;;11.53;7.13;;;;;;;;;;5062788;28;20201;-63
2021/03/30 14:27:19;;;;;;;10.63;7.33;;;;;;;;;;5052347;28;20169;-63
2021/03/30 14:29:45;;;;;;;10.23;6.80;;;;;;;;;;5047551;28;20567;-63
2021/03/30 14:32:14;;;;;;;10.03;6.83;;;;;;;;;;5061143;28;20201;-63
2021/03/30 14:34:41;;;;;;;7.63;5.57;;;;;;;;;;5072094;28;20188;-63
2021/03/30 14:37:08;;;;;;;13.30;6.70;;;;;;;;;;5050287;28;20188;-63
2021/03/30 14:39:34;;;;;;;13.20;7.10;;;;;;;;;;5046108;28;20216;-62
2021/03/30 14:42:10;;;;;;;10.30;7.27;;;;;;;;;;5051559;28;20584;-63
2021/03/30 14:52:53;;;;;;;7.60;6.03;;;;;;;;;;5052345;28;20180;-63
2021/03/30 15:01:06;;;;;;;7.63;5.63;;;;;;;;;;5054319;28;20224;-63
2021/03/30 15:03:38;;;;;;;9.50;6.40;;;;;;;;;;5054426;28;20662;-65
2021/03/30 15:06:05;;;;;;;11.43;6.40;;;;;;;;;;5054216;28;20627;-62